This is the latest recevied weather packets stored in our database for station/object AB2HM. If no packets are shown the sender has not sent any weather packets the latest 1 day(s).
| Time | Temp. | Humidity | Pressure | Rain* | Wind** | Luminosity | Snow |
|---|---|---|---|---|---|---|---|
| 1778109791 | 21.67° C | 70% | 1009 hPa | 0 mm | - | - | - |
| 1778107979 | 21.67° C | 69% | 1009.2 hPa | 0 mm | - | - | - |
| 1778106173 | 22.22° C | 67% | 1008.9 hPa | 0 mm | - | - | - |
| 1778102546 | 21.67° C | 70% | 1009 hPa | 0 mm | - | - | - |
| 1778088106 | 20° C | 72% | 1009.9 hPa | 0 mm | - | - | - |
| 1778084492 | 21.11° C | 67% | 1010.6 hPa | 0 mm | - | - | - |
| 1778082682 | 21.11° C | 65% | 1011.1 hPa | 0 mm | - | - | - |
| 1778080878 | 21.11° C | 62% | 1011.2 hPa | 0 mm | - | - | - |
| 1778075452 | 21.67° C | 59% | 1011.1 hPa | 0 mm | - | - | - |
| 1778070045 | 20.56° C | 67% | 1011.4 hPa | 0 mm | - | - | - |
| 1778066447 | 18.89° C | 71% | 1011.3 hPa | 0 mm | - | - | - |
| 1778064645 | 18.33° C | 72% | 1011.4 hPa | 0 mm | - | - | - |
| 1778062844 | 18.33° C | 73% | 1011.4 hPa | 0 mm | - | - | - |
| 1778061044 | 18.33° C | 73% | 1011.4 hPa | 0 mm | - | - | - |
| 1778059244 | 18.89° C | 73% | 1011.3 hPa | 0 mm | - | - | - |
| 1778057445 | 19.44° C | 73% | 1011.3 hPa | 0 mm | - | - | - |
| 1778055644 | 19.44° C | 73% | 1011.6 hPa | 0 mm | - | - | - |
| 1778053843 | 19.44° C | 72% | 1011.7 hPa | 0 mm | - | - | - |
| 1778052024 | 20° C | 71% | 1011.6 hPa | 0 mm | - | - | - |
| 1778046601 | 20.56° C | 68% | 1011.8 hPa | 0 mm | - | - | - |
| 1778044782 | 20.56° C | 67% | 1012 hPa | 0 mm | - | - | - |
| 1778042981 | 21.11° C | 66% | 1012.3 hPa | 0 mm | - | - | - |
| 1778041178 | 20.56° C | 65% | 1012.3 hPa | 0 mm | - | - | - |
| 1778039369 | 21.11° C | 64% | 1012.3 hPa | 0 mm | - | - | - |
| 1778037564 | 21.11° C | 62% | 1012.2 hPa | 0 mm | - | - | - |
* Rain latest hour (hover to see other rain measurements)
** Current wind speed in m/s (hover to see current wind gust speed)